Time;durP1;ratioP1;P1;durP2;ratioP2;P2;SDS_P1;SDS_P2;PMS_P1;PMS_P2;Temp;Humidity;BMP_temperature;BMP_pressure;BME280_temperature;BME280_humidity;BME280_pressure;Samples;Min_cycle;Max_cycle;Signal;HPM_P1;HPM_P2
2022/03/10 00:02:09;;;;;;;21.00;9.85;;;0.70;90.00;;;;;;5029338;28;20062;-49
2022/03/10 00:04:38;;;;;;;18.92;11.00;;;0.50;89.80;;;;;;5030546;28;20088;-48
2022/03/10 00:07:04;;;;;;;18.63;11.55;;;0.60;90.10;;;;;;5030042;28;20382;-47
2022/03/10 00:09:34;;;;;;;19.90;10.35;;;0.50;90.10;;;;;;5029600;28;20605;-46
2022/03/10 00:12:00;;;;;;;22.10;11.00;;;0.40;90.20;;;;;;5029787;28;20053;-46
2022/03/10 00:14:26;;;;;;;18.90;11.02;;;0.20;90.30;;;;;;5029347;28;20138;-47
2022/03/10 00:16:53;;;;;;;22.58;11.40;;;0.10;90.50;;;;;;5029715;28;20041;-49
2022/03/10 00:19:19;;;;;;;20.35;11.77;;;0.00;91.00;;;;;;5029876;28;20044;-48
2022/03/10 00:21:46;;;;;;;17.45;10.57;;;-0.20;91.00;;;;;;5029842;28;20487;-48
2022/03/10 00:24:11;;;;;;;20.92;11.88;;;-0.40;91.10;;;;;;5030463;28;20067;-48
2022/03/10 00:26:37;;;;;;;20.90;11.15;;;-0.50;91.40;;;;;;5030604;28;20116;-49
2022/03/10 00:29:06;;;;;;;19.70;11.98;;;-0.60;91.50;;;;;;5030386;28;20117;-46
2022/03/10 00:31:32;;;;;;;20.92;11.40;;;-0.80;91.80;;;;;;5029263;28;20042;-49
2022/03/10 00:33:58;;;;;;;18.50;11.20;;;-1.00;91.90;;;;;;5030530;28;20041;-47
2022/03/10 00:36:24;;;;;;;19.33;11.38;;;-1.00;92.30;;;;;;5030173;28;20071;-49
2022/03/10 00:38:50;;;;;;;20.40;12.07;;;-0.90;92.70;;;;;;5030357;28;20045;-50
2022/03/10 00:41:17;;;;;;;18.25;10.90;;;-0.90;92.80;;;;;;5029997;28;20040;-50
2022/03/10 00:43:42;;;;;;;16.58;10.65;;;-0.90;92.80;;;;;;5030219;28;20088;-48
2022/03/10 00:46:08;;;;;;;19.42;11.57;;;-0.90;92.90;;;;;;5030168;28;20069;-46
2022/03/10 00:48:34;;;;;;;20.35;10.93;;;-0.90;92.90;;;;;;5029655;28;20042;-46
2022/03/10 00:51:00;;;;;;;21.65;11.90;;;-1.00;93.10;;;;;;5030015;28;20365;-48
2022/03/10 00:53:25;;;;;;;24.08;11.55;;;-1.00;93.30;;;;;;5029829;28;20631;-49
2022/03/10 00:55:51;;;;;;;19.75;11.20;;;-0.90;93.30;;;;;;5029740;28;20434;-48
2022/03/10 00:58:17;;;;;;;18.88;11.10;;;-0.90;93.30;;;;;;5029250;28;20075;-47
2022/03/10 01:00:43;;;;;;;19.85;12.20;;;-0.90;93.20;;;;;;5028866;28;20081;-47
2022/03/10 01:03:08;;;;;;;22.42;11.68;;;-0.90;93.50;;;;;;5029409;28;20052;-46
2022/03/10 01:05:34;;;;;;;18.67;11.10;;;-0.90;93.50;;;;;;5029590;28;20045;-47
2022/03/10 01:08:00;;;;;;;19.33;10.70;;;-0.80;93.60;;;;;;5029542;28;20046;-49
2022/03/10 01:10:26;;;;;;;18.67;11.20;;;-0.80;93.50;;;;;;5029350;28;20048;-47
2022/03/10 01:12:52;;;;;;;20.17;11.93;;;-0.80;93.60;;;;;;5029617;28;20033;-48
2022/03/10 01:15:21;;;;;;;20.90;11.15;;;-0.70;93.60;;;;;;5029550;28;20033;-52
2022/03/10 01:17:47;;;;;;;17.95;11.35;;;-0.60;93.40;;;;;;5029738;28;20072;-47
2022/03/10 01:20:13;;;;;;;18.20;10.88;;;-0.60;93.70;;;;;;5029506;28;20492;-48
2022/03/10 01:22:39;;;;;;;19.67;11.05;;;-0.60;93.50;;;;;;5028639;28;20061;-48
2022/03/10 01:25:07;;;;;;;19.00;11.75;;;-0.50;93.30;;;;;;5029709;28;20053;-50
2022/03/10 01:27:34;;;;;;;22.17;10.73;;;-0.40;93.30;;;;;;5028940;28;20045;-50
2022/03/10 01:30:00;;;;;;;20.08;10.82;;;-0.30;93.30;;;;;;5029247;28;20462;-49
2022/03/10 01:32:26;;;;;;;19.98;11.13;;;-0.20;93.10;;;;;;5029392;28;20033;-48
2022/03/10 01:34:52;;;;;;;20.35;11.00;;;-0.10;93.10;;;;;;5029665;28;20041;-48
2022/03/10 01:37:19;;;;;;;18.83;11.30;;;-0.10;92.80;;;;;;5029537;28;20076;-50
2022/03/10 01:39:45;;;;;;;18.05;10.05;;;0.00;92.80;;;;;;5029155;28;20041;-53
2022/03/10 01:42:11;;;;;;;20.05;11.07;;;3.70;93.50;;;;;;5028943;28;20122;-49
2022/03/10 01:44:38;;;;;;;18.17;11.40;;;0.10;92.60;;;;;;5028924;28;20044;-52
2022/03/10 01:47:05;;;;;;;18.23;11.25;;;0.10;92.50;;;;;;5029364;28;20498;-47
2022/03/10 01:49:35;;;;;;;19.38;10.20;;;0.30;92.40;;;;;;5029274;28;20167;-52
2022/03/10 01:52:01;;;;;;;18.95;10.82;;;0.30;92.20;;;;;;5029606;28;20103;-51
2022/03/10 01:54:27;;;;;;;18.17;9.55;;;0.30;92.10;;;;;;5028799;28;20045;-48
2022/03/10 01:56:53;;;;;;;18.55;10.30;;;0.40;91.90;;;;;;5029077;28;20033;-48
2022/03/10 01:59:20;;;;;;;18.45;10.68;;;0.50;91.80;;;;;;5029127;28;20087;-48
2022/03/10 02:01:46;;;;;;;18.50;10.45;;;0.50;91.60;;;;;;5028324;28;20480;-47
2022/03/10 02:04:13;;;;;;;17.45;10.93;;;0.60;91.50;;;;;;5027392;28;20034;-48
2022/03/10 02:06:39;;;;;;;18.45;10.75;;;0.60;91.40;;;;;;5028554;28;20042;-48
2022/03/10 02:11:51;;;;;;;19.70;11.00;;;0.60;91.20;;;;;;5028213;28;20096;-47
2022/03/10 02:19:54;;;;;;;18.60;10.23;;;0.60;91.00;;;;;;5028746;28;20045;-48
2022/03/10 02:22:21;;;;;;;18.85;10.77;;;0.60;91.00;;;;;;5028294;28;20065;-47
2022/03/10 02:24:48;;;;;;;24.80;11.10;;;0.60;90.90;;;;;;5029842;28;20755;-47
2022/03/10 02:27:19;;;;;;;16.15;9.25;;;0.50;90.80;;;;;;5032067;28;20686;-47
2022/03/10 02:29:47;;;;;;;20.20;11.27;;;0.50;90.80;;;;;;5032373;28;20121;-47
2022/03/10 02:32:14;;;;;;;20.25;10.23;;;0.40;90.90;;;;;;5032801;28;20914;-50
2022/03/10 02:34:41;;;;;;;17.23;10.65;;;0.50;90.80;;;;;;5032401;28;20045;-49
2022/03/10 02:37:08;;;;;;;21.02;10.68;;;0.40;90.80;;;;;;5032914;28;20041;-49
2022/03/10 02:39:34;;;;;;;20.77;10.73;;;0.40;90.80;;;;;;5032243;28;20045;-51
2022/03/10 02:42:00;;;;;;;19.45;10.32;;;0.30;90.90;;;;;;5032610;28;20414;-50
2022/03/10 02:44:25;;;;;;;19.80;9.88;;;0.20;91.00;;;;;;5032503;28;20045;-47
2022/03/10 02:46:51;;;;;;;18.48;10.63;;;0.10;91.10;;;;;;5032081;28;20052;-49
2022/03/10 02:49:17;;;;;;;17.20;10.93;;;0.00;91.10;;;;;;5031934;28;20061;-48
2022/03/10 02:51:43;;;;;;;20.67;10.85;;;0.00;91.10;;;;;;5031980;28;20033;-48
2022/03/10 02:54:09;;;;;;;19.73;11.73;;;0.00;91.20;;;;;;5032322;28;20459;-50
2022/03/10 02:56:35;;;;;;;16.58;10.27;;;-0.10;91.20;;;;;;5031989;28;20124;-47
2022/03/10 02:59:01;;;;;;;20.77;11.00;;;-0.20;91.20;;;;;;5032231;28;20043;-51
2022/03/10 03:01:28;;;;;;;17.77;9.80;;;-0.20;91.20;;;;;;5031836;28;20045;-48
2022/03/10 03:03:53;;;;;;;18.80;11.20;;;0.60;91.50;;;;;;5030400;28;20489;-50
2022/03/10 03:06:19;;;;;;;18.83;10.90;;;-0.30;91.40;;;;;;5031938;28;20041;-51
2022/03/10 03:08:45;;;;;;;20.13;12.57;;;-0.30;91.40;;;;;;5029506;28;20064;-48
2022/03/10 03:11:11;;;;;;;21.17;11.82;;;-0.40;91.70;;;;;;5032043;28;20048;-49
2022/03/10 03:13:36;;;;;;;21.88;11.93;;;-0.40;91.80;;;;;;5031848;28;20041;-48
2022/03/10 03:16:02;;;;;;;20.67;11.52;;;-0.50;91.90;;;;;;5032165;28;20044;-48
2022/03/10 03:18:28;;;;;;;19.38;10.95;;;-0.60;91.90;;;;;;5032011;28;20123;-49
2022/03/10 03:20:54;;;;;;;22.08;11.93;;;-0.70;92.00;;;;;;5031678;28;20047;-49
2022/03/10 03:23:19;;;;;;;18.63;11.13;;;-0.90;92.20;;;;;;5030199;28;20089;-47
2022/03/10 03:25:45;;;;;;;18.15;11.00;;;-0.90;92.40;;;;;;5031452;28;20045;-47
2022/03/10 03:28:11;;;;;;;18.45;10.77;;;-1.00;92.60;;;;;;5031620;28;20034;-48
2022/03/10 03:30:36;;;;;;;21.23;10.88;;;-0.90;92.70;;;;;;5031375;28;20452;-48
2022/03/10 03:33:02;;;;;;;19.63;11.25;;;-0.80;92.60;;;;;;5031204;28;20115;-49
2022/03/10 03:35:28;;;;;;;17.00;9.95;;;-0.60;92.60;;;;;;5031282;28;20112;-48
2022/03/10 03:37:53;;;;;;;18.05;9.25;;;-0.40;92.40;;;;;;5031165;28;20107;-51
2022/03/10 03:40:19;;;;;;;19.20;10.48;;;-0.20;92.10;;;;;;5029646;28;20053;-49
2022/03/10 03:42:44;;;;;;;16.98;9.70;;;0.00;91.70;;;;;;5030793;28;20033;-47
2022/03/10 03:45:10;;;;;;;20.73;10.23;;;0.00;91.50;;;;;;5030981;28;20096;-49
2022/03/10 03:47:36;;;;;;;18.00;10.02;;;0.10;91.30;;;;;;5031085;28;20041;-48
2022/03/10 03:50:04;;;;;;;19.20;11.18;;;0.10;91.10;;;;;;5031089;28;20616;-48
2022/03/10 03:52:29;;;;;;;20.88;10.93;;;0.10;91.00;;;;;;5031103;28;20081;-50
2022/03/10 03:54:55;;;;;;;21.65;9.75;;;0.00;91.00;;;;;;5031241;28;20499;-48
2022/03/10 03:57:21;;;;;;;17.95;10.45;;;-0.20;91.00;;;;;;5031341;28;20034;-50
2022/03/10 03:59:47;;;;;;;18.65;10.68;;;-0.10;91.10;;;;;;5030737;28;20037;-49
2022/03/10 04:02:12;;;;;;;19.02;10.32;;;-0.10;91.10;;;;;;5030760;28;20391;-49
2022/03/10 04:04:38;;;;;;;21.98;11.07;;;-0.10;91.20;;;;;;5030658;28;20045;-48
2022/03/10 04:07:04;;;;;;;19.67;10.90;;;0.00;91.00;;;;;;5030356;28;20041;-50
2022/03/10 04:09:30;;;;;;;19.77;9.90;;;0.10;91.00;;;;;;5030380;28;20045;-48
2022/03/10 04:11:55;;;;;;;18.10;9.93;;;0.20;90.90;;;;;;5030045;28;20048;-48
2022/03/10 04:14:21;;;;;;;18.38;9.75;;;0.20;90.70;;;;;;5030166;28;20049;-49
2022/03/10 04:16:47;;;;;;;18.70;10.38;;;0.30;90.50;;;;;;5030078;28;20064;-50
2022/03/10 04:19:12;;;;;;;19.90;11.68;;;0.20;90.50;;;;;;5030316;28;20093;-48
2022/03/10 04:21:38;;;;;;;18.50;10.88;;;0.10;90.50;;;;;;5030368;28;20041;-49
2022/03/10 04:24:04;;;;;;;17.17;10.25;;;0.00;90.50;;;;;;5030440;28;20053;-47
2022/03/10 04:26:30;;;;;;;17.75;11.15;;;0.00;90.50;;;;;;5030696;28;20182;-49
2022/03/10 04:28:56;;;;;;;16.48;9.30;;;0.00;90.50;;;;;;5030140;28;20544;-50
2022/03/10 04:31:21;;;;;;;17.52;10.30;;;0.00;90.60;;;;;;5030099;28;20511;-48
2022/03/10 04:33:47;;;;;;;18.83;10.43;;;0.00;90.70;;;;;;5029926;28;20034;-47
2022/03/10 04:36:13;;;;;;;18.30;10.82;;;0.00;90.60;;;;;;5030151;28;20391;-51
2022/03/10 04:38:39;;;;;;;18.15;9.68;;;0.00;90.60;;;;;;5030151;28;20123;-51
2022/03/10 04:41:04;;;;;;;17.17;9.70;;;0.10;90.60;;;;;;5029827;28;20152;-52
2022/03/10 04:43:30;;;;;;;19.92;10.57;;;0.10;90.60;;;;;;5029951;28;20635;-50
2022/03/10 04:45:57;;;;;;;22.77;10.05;;;0.00;90.40;;;;;;5029507;28;20041;-48
2022/03/10 04:48:23;;;;;;;18.70;9.55;;;0.20;90.40;;;;;;5029111;28;20042;-52
2022/03/10 04:50:48;;;;;;;17.45;10.38;;;0.10;90.30;;;;;;5029444;28;20152;-50
2022/03/10 04:53:14;;;;;;;17.63;10.43;;;0.10;90.40;;;;;;5029550;28;20045;-49
2022/03/10 04:55:41;;;;;;;16.85;10.40;;;0.00;90.40;;;;;;5030176;28;20038;-48
2022/03/10 04:58:08;;;;;;;19.58;10.55;;;-0.10;90.50;;;;;;5029883;28;20085;-47
2022/03/10 05:00:34;;;;;;;18.77;10.13;;;-0.10;90.50;;;;;;5029806;28;20045;-48
2022/03/10 05:03:00;;;;;;;19.17;10.77;;;-0.10;90.60;;;;;;5029479;28;20494;-47
2022/03/10 05:05:25;;;;;;;18.30;10.32;;;-0.10;90.70;;;;;;5029987;28;20045;-51
2022/03/10 05:07:51;;;;;;;19.15;9.88;;;-0.10;90.80;;;;;;5029724;28;20521;-47
2022/03/10 05:10:18;;;;;;;18.15;10.15;;;1.70;91.20;;;;;;5029856;28;20464;-48
2022/03/10 05:12:48;;;;;;;19.48;11.35;;;0.00;90.70;;;;;;5029752;28;20084;-49
2022/03/10 05:15:23;;;;;;;20.08;10.50;;;0.00;90.60;;;;;;5028382;28;20059;-50
2022/03/10 05:17:49;;;;;;;16.88;10.75;;;0.10;90.60;;;;;;5029781;28;20060;-46
2022/03/10 05:20:16;;;;;;;16.63;9.65;;;0.10;90.50;;;;;;5044424;28;20526;-50
2022/03/10 05:22:45;;;;;;;17.40;10.07;;;0.10;90.50;;;;;;5029342;28;20145;-47
2022/03/10 05:25:12;;;;;;;19.30;10.23;;;0.20;90.60;;;;;;5029248;28;20259;-50
2022/03/10 05:27:37;;;;;;;17.77;11.00;;;0.10;90.50;;;;;;5029459;28;20128;-48
2022/03/10 05:30:04;;;;;;;19.88;11.82;;;0.10;90.50;;;;;;5029176;28;20542;-46
2022/03/10 05:32:30;;;;;;;19.88;10.75;;;0.10;90.40;;;;;;5029653;28;20576;-48
2022/03/10 05:34:56;;;;;;;21.23;11.35;;;0.00;90.50;;;;;;5029070;28;20042;-47
2022/03/10 05:37:22;;;;;;;16.27;10.25;;;-0.10;90.50;;;;;;5029279;28;20134;-48
2022/03/10 05:39:48;;;;;;;18.35;10.23;;;-0.10;90.60;;;;;;5029233;28;20050;-48
2022/03/10 05:42:14;;;;;;;16.98;10.32;;;-0.10;90.80;;;;;;5028977;28;20103;-51
2022/03/10 05:44:39;;;;;;;17.60;9.75;;;0.60;91.00;;;;;;5029157;28;20041;-50
2022/03/10 05:47:06;;;;;;;19.02;10.40;;;-0.30;94.60;;;;;;5028553;28;20484;-49
2022/03/10 05:49:32;;;;;;;16.05;9.38;;;-0.20;90.90;;;;;;5027542;28;20522;-48
2022/03/10 05:51:58;;;;;;;17.85;10.13;;;-0.30;91.00;;;;;;5029050;28;20034;-49
2022/03/10 05:54:23;;;;;;;21.13;11.75;;;-0.30;90.90;;;;;;5029010;28;20419;-49
2022/03/10 05:56:49;;;;;;;17.92;10.40;;;-0.30;91.00;;;;;;5029252;28;20045;-48
2022/03/10 05:59:15;;;;;;;18.08;10.63;;;-0.30;91.10;;;;;;5031602;28;20049;-47
2022/03/10 06:01:40;;;;;;;18.25;11.57;;;-0.40;91.20;;;;;;5033211;28;20081;-48
2022/03/10 06:04:06;;;;;;;17.33;10.02;;;-0.30;91.30;;;;;;5032605;28;20049;-49
2022/03/10 06:06:32;;;;;;;16.95;10.27;;;-0.30;91.30;;;;;;5032603;28;20068;-47
2022/03/10 06:08:57;;;;;;;19.10;10.65;;;-0.40;91.30;;;;;;5032844;28;20041;-47
2022/03/10 06:11:23;;;;;;;20.98;11.23;;;-0.30;91.40;;;;;;5032678;28;20037;-46
2022/03/10 06:13:49;;;;;;;17.48;10.80;;;-0.10;91.40;;;;;;5032833;28;20533;-47
2022/03/10 06:16:14;;;;;;;19.52;10.63;;;0.20;91.30;;;;;;5032740;28;20078;-49
2022/03/10 06:18:40;;;;;;;20.50;9.95;;;0.50;91.20;;;;;;5032718;28;20053;-48
2022/03/10 06:21:06;;;;;;;15.70;9.93;;;0.80;91.20;;;;;;5032784;28;20641;-50
2022/03/10 06:23:32;;;;;;;19.23;10.68;;;1.30;90.70;;;;;;5032538;28;20057;-48
2022/03/10 06:25:58;;;;;;;19.85;9.93;;;1.90;90.20;;;;;;5032823;28;20493;-50
2022/03/10 06:28:23;;;;;;;16.75;9.68;;;2.20;89.30;;;;;;5032212;28;20037;-49
2022/03/10 06:30:49;;;;;;;17.75;10.45;;;2.80;88.30;;;;;;5032386;28;20049;-50
2022/03/10 06:33:15;;;;;;;16.67;10.52;;;3.00;87.60;;;;;;5032213;28;20120;-49
2022/03/10 06:35:41;;;;;;;17.15;9.73;;;2.90;87.10;;;;;;5032511;28;20061;-48
2022/03/10 06:38:06;;;;;;;18.17;10.10;;;2.70;87.40;;;;;;5032370;28;20052;-50
2022/03/10 06:40:32;;;;;;;17.92;10.88;;;2.50;86.50;;;;;;5032121;28;20081;-47
2022/03/10 06:42:58;;;;;;;18.83;10.38;;;2.30;86.60;;;;;;5031941;28;20049;-50
2022/03/10 06:45:24;;;;;;;16.85;10.43;;;2.30;86.90;;;;;;5031777;28;20083;-48
2022/03/10 06:47:49;;;;;;;21.48;12.18;;;2.80;87.20;;;;;;5032348;28;20418;-48
2022/03/10 06:50:15;;;;;;;17.75;10.63;;;2.30;87.10;;;;;;5030662;28;20038;-48
2022/03/10 06:52:41;;;;;;;16.40;10.30;;;2.50;86.90;;;;;;5032212;28;20345;-49
2022/03/10 06:55:07;;;;;;;16.88;11.30;;;2.70;86.80;;;;;;5031883;28;20041;-48
2022/03/10 06:57:32;;;;;;;18.10;10.82;;;2.80;86.40;;;;;;5030314;28;20580;-47
2022/03/10 06:59:58;;;;;;;18.35;11.15;;;2.70;86.30;;;;;;5032087;28;20061;-50
2022/03/10 07:02:24;;;;;;;19.15;10.32;;;2.60;86.40;;;;;;5031862;28;20049;-50
2022/03/10 07:04:49;;;;;;;19.55;11.10;;;2.60;86.50;;;;;;5031943;28;20099;-49
2022/03/10 07:07:15;;;;;;;19.30;11.40;;;2.50;86.60;;;;;;5031681;28;20038;-50
2022/03/10 07:09:41;;;;;;;16.75;10.15;;;2.60;86.70;;;;;;5031254;28;20084;-48
2022/03/10 07:12:09;;;;;;;19.55;11.38;;;2.70;86.70;;;;;;5031553;28;20148;-48
2022/03/10 07:14:34;;;;;;;17.50;10.95;;;2.90;86.30;;;;;;5031420;28;20042;-47
2022/03/10 07:17:00;;;;;;;18.83;11.48;;;3.00;86.40;;;;;;5032016;28;20121;-49
2022/03/10 07:19:26;;;;;;;20.90;12.05;;;3.20;86.00;;;;;;5031528;28;20456;-48
2022/03/10 07:21:52;;;;;;;19.88;12.38;;;3.20;85.80;;;;;;5031713;28;20045;-48
2022/03/10 07:24:17;;;;;;;20.65;11.10;;;3.30;85.50;;;;;;5013419;28;20057;-51
2022/03/10 07:26:43;;;;;;;20.10;11.15;;;3.50;85.70;;;;;;5031594;28;20095;-48
2022/03/10 07:29:09;;;;;;;19.70;11.68;;;4.10;85.20;;;;;;5031342;28;20495;-50
2022/03/10 07:31:35;;;;;;;19.20;11.43;;;4.60;84.50;;;;;;5031116;28;20182;-51
2022/03/10 07:34:01;;;;;;;18.92;11.32;;;5.20;82.90;;;;;;5031377;28;20049;-49
2022/03/10 07:36:26;;;;;;;18.65;11.50;;;5.10;82.60;;;;;;5031238;28;20137;-49
2022/03/10 07:38:52;;;;;;;17.08;11.30;;;5.80;82.60;;;;;;5030878;28;20128;-48
2022/03/10 07:41:18;;;;;;;20.63;11.52;;;4.70;82.60;;;;;;5030839;28;20056;-52
2022/03/10 07:43:44;;;;;;;17.27;10.57;;;4.90;82.90;;;;;;5031225;28;20049;-52
2022/03/10 07:46:10;;;;;;;17.10;11.25;;;5.20;82.50;;;;;;5030933;28;20038;-47
2022/03/10 07:48:36;;;;;;;20.52;12.18;;;5.10;82.50;;;;;;5031073;28;20479;-51
2022/03/10 07:51:01;;;;;;;19.48;11.38;;;6.20;82.70;;;;;;5031028;28;20041;-48
2022/03/10 07:53:27;;;;;;;16.58;11.25;;;5.20;82.50;;;;;;5031338;28;20041;-48
2022/03/10 07:55:56;;;;;;;18.00;11.15;;;4.70;82.80;;;;;;5030798;28;20045;-52
2022/03/10 07:58:29;;;;;;;18.48;11.07;;;4.80;83.20;;;;;;5030765;28;20048;-49
2022/03/10 08:00:54;;;;;;;19.27;12.40;;;4.80;83.10;;;;;;5031192;28;20045;-52
2022/03/10 08:03:22;;;;;;;19.00;11.98;;;5.10;83.30;;;;;;5030528;28;20041;-49
2022/03/10 08:05:49;;;;;;;16.23;10.75;;;6.40;83.30;;;;;;5030918;28;20116;-48
2022/03/10 08:08:14;;;;;;;19.70;12.35;;;6.80;83.00;;;;;;5030714;28;20120;-51
2022/03/10 08:10:40;;;;;;;23.27;11.52;;;6.60;81.90;;;;;;5030456;28;20534;-48
2022/03/10 08:13:06;;;;;;;19.17;11.88;;;6.80;81.30;;;;;;5030357;28;20041;-57
2022/03/10 08:15:32;;;;;;;17.60;10.93;;;7.10;80.60;;;;;;5024216;28;20396;-54
2022/03/10 08:17:57;;;;;;;16.80;11.55;;;7.80;79.60;;;;;;5026535;28;20141;-54
2022/03/10 08:20:23;;;;;;;18.33;10.48;;;7.00;79.20;;;;;;5029486;28;20045;-52
2022/03/10 08:22:49;;;;;;;18.70;11.32;;;6.90;79.00;;;;;;5029712;28;20061;-53
2022/03/10 08:25:15;;;;;;;16.08;11.25;;;7.00;78.70;;;;;;5028981;28;20056;-52
2022/03/10 08:27:43;;;;;;;15.77;11.18;;;7.70;78.70;;;;;;5029892;28;20045;-41
2022/03/10 08:30:13;;;;;;;14.93;11.25;;;7.50;79.00;;;;;;4986972;28;20088;-44
2022/03/10 08:32:40;;;;;;;16.35;11.02;;;7.90;77.80;;;;;;5046375;28;20041;-40
2022/03/10 08:35:06;;;;;;;18.08;10.73;;;8.60;77.70;;;;;;5049404;28;20041;-40
2022/03/10 08:37:32;;;;;;;17.33;11.50;;;9.20;75.50;;;;;;5048793;28;20088;-53
2022/03/10 08:39:57;;;;;;;17.88;10.50;;;10.10;75.40;;;;;;5050223;28;20040;-43
2022/03/10 08:42:30;;;;;;;17.80;10.98;;;11.20;73.70;;;;;;5115231;27;19915;-41
2022/03/10 08:44:56;;;;;;;19.63;11.60;;;12.50;72.30;;;;;;5080142;28;20536;-44
2022/03/10 08:47:22;;;;;;;19.58;10.77;;;13.70;69.90;;;;;;5056036;28;20029;-45
2022/03/10 08:49:48;;;;;;;17.60;11.07;;;14.60;65.80;;;;;;5048546;28;20028;-45
2022/03/10 08:52:13;;;;;;;17.58;11.43;;;15.10;62.80;;;;;;5071304;28;20128;-43
2022/03/10 08:54:39;;;;;;;16.95;10.93;;;15.00;60.40;;;;;;5057214;28;20256;-48
2022/03/10 08:57:14;;;;;;;18.00;10.93;;;15.60;60.80;;;;;;5072587;28;20047;-50
2022/03/10 08:59:40;;;;;;;18.05;10.73;;;15.80;57.50;;;;;;5075774;28;20043;-42
2022/03/10 09:02:05;;;;;;;14.48;10.80;;;15.50;58.00;;;;;;5043959;28;20378;-45
2022/03/10 09:04:31;;;;;;;18.35;10.73;;;15.00;58.90;;;;;;5042356;28;20135;-46
2022/03/10 09:06:57;;;;;;;17.42;10.85;;;14.40;59.80;;;;;;5058103;28;20059;-48
2022/03/10 09:09:24;;;;;;;15.32;10.95;;;14.10;60.10;;;;;;5040423;28;20481;-44
2022/03/10 09:11:50;;;;;;;15.27;10.68;;;14.00;61.60;;;;;;5058322;28;20669;-44
2022/03/10 09:14:15;;;;;;;15.75;10.10;;;13.90;62.50;;;;;;5058418;28;20032;-54
2022/03/10 09:16:41;;;;;;;14.93;10.48;;;14.20;61.10;;;;;;5058208;28;20049;-52
2022/03/10 09:19:06;;;;;;;14.43;10.18;;;15.20;61.20;;;;;;5058751;28;20060;-52
2022/03/10 09:21:35;;;;;;;15.07;10.68;;;16.50;59.80;;;;;;5057268;28;20048;-48
2022/03/10 09:24:10;;;;;;;13.55;10.15;;;17.50;57.10;;;;;;5058728;28;20040;-47
2022/03/10 09:26:38;;;;;;;13.98;9.57;;;17.90;54.40;;;;;;5058140;28;20070;-54
2022/03/10 09:29:04;;;;;;;17.70;11.10;;;18.20;54.30;;;;;;5060059;28;20117;-49
2022/03/10 09:31:30;;;;;;;14.50;10.52;;;18.40;53.70;;;;;;5058397;28;20398;-47
2022/03/10 09:33:56;;;;;;;15.07;10.65;;;18.50;52.50;;;;;;5059954;28;20048;-50
2022/03/10 09:36:21;;;;;;;17.08;10.23;;;18.20;53.40;;;;;;5055642;28;20049;-49
2022/03/10 09:38:47;;;;;;;13.80;10.07;;;17.90;53.70;;;;;;5058248;28;20033;-51
2022/03/10 09:41:13;;;;;;;14.30;10.60;;;18.20;53.80;;;;;;5042921;28;20566;-55
2022/03/10 09:43:39;;;;;;;12.20;9.85;;;18.50;51.80;;;;;;5045421;28;20049;-43
2022/03/10 09:46:08;;;;;;;13.80;10.52;;;18.70;52.60;;;;;;5042497;28;20048;-43
2022/03/10 09:48:36;;;;;;;14.55;10.55;;;18.90;52.70;;;;;;5042626;28;20044;-45
2022/03/10 09:51:08;;;;;;;15.32;9.75;;;19.10;52.20;;;;;;5023910;28;20064;-47
2022/03/10 09:53:38;;;;;;;16.85;9.95;;;19.00;51.70;;;;;;4996780;28;20049;-45
2022/03/10 09:56:04;;;;;;;16.08;11.05;;;19.30;50.90;;;;;;5029006;28;20044;-44
2022/03/10 09:58:31;;;;;;;18.27;10.65;;;19.60;50.70;;;;;;5029541;28;20049;-45
2022/03/10 10:01:06;;;;;;;12.38;9.77;;;19.60;49.90;;;;;;5029488;28;20405;-44
2022/03/10 10:03:33;;;;;;;13.32;9.63;;;19.50;48.50;;;;;;5029026;28;20049;-44
2022/03/10 10:06:00;;;;;;;14.50;10.57;;;19.40;47.70;;;;;;5028992;28;20041;-45
2022/03/10 10:08:27;;;;;;;11.43;9.65;;;19.50;48.10;;;;;;5028863;28;20330;-44
2022/03/10 10:10:56;;;;;;;11.73;9.10;;;18.70;48.90;;;;;;5028500;28;20041;-48
2022/03/10 10:13:39;;;;;;;15.55;10.85;;;17.60;50.60;;;;;;5029165;28;20096;-46
2022/03/10 10:16:13;;;;;;;14.68;9.68;;;16.90;51.80;;;;;;5029264;28;20379;-46
2022/03/10 10:18:41;;;;;;;13.48;10.02;;;16.50;52.30;;;;;;5028772;28;20045;-46
2022/03/10 10:21:08;;;;;;;14.85;9.57;;;16.40;53.90;;;;;;5029480;28;20053;-44
2022/03/10 10:23:35;;;;;;;12.95;10.05;;;16.80;53.80;;;;;;5028965;28;20049;-42
2022/03/10 10:26:05;;;;;;;14.80;10.35;;;17.40;52.90;;;;;;5028972;28;20041;-43
2022/03/10 10:28:39;;;;;;;17.42;9.48;;;17.50;51.30;;;;;;5029077;28;20053;-43
2022/03/10 10:31:07;;;;;;;13.25;9.77;;;17.50;51.70;;;;;;5028462;28;20095;-43
2022/03/10 10:33:36;;;;;;;13.48;10.20;;;17.20;51.80;;;;;;5028762;28;20192;-46
2022/03/10 10:36:27;;;;;;;12.13;9.20;;;17.40;50.90;;;;;;5028403;28;20037;-44
2022/03/10 10:38:54;;;;;;;14.43;9.63;;;17.60;49.50;;;;;;5027371;28;20049;-45
2022/03/10 10:41:29;;;;;;;12.77;9.20;;;18.10;49.90;;;;;;5027015;28;20069;-44
2022/03/10 10:44:04;;;;;;;14.10;10.05;;;19.00;49.20;;;;;;5027824;28;20175;-45
2022/03/10 10:46:40;;;;;;;13.75;9.65;;;19.80;47.60;;;;;;5027205;28;20487;-44
2022/03/10 10:49:21;;;;;;;14.63;9.45;;;20.40;47.30;;;;;;5027785;28;20037;-45
2022/03/10 10:51:58;;;;;;;12.63;9.85;;;21.00;46.30;;;;;;5008902;28;20096;-46
2022/03/10 10:54:27;;;;;;;16.10;9.88;;;21.00;45.10;;;;;;5028362;28;20103;-44
2022/03/10 10:56:58;;;;;;;13.40;10.25;;;20.80;44.80;;;;;;5027565;28;20617;-43
2022/03/10 10:59:31;;;;;;;16.00;9.38;;;20.50;44.50;;;;;;5027440;28;20073;-43
2022/03/10 11:02:11;;;;;;;13.15;10.05;;;20.20;44.30;;;;;;5027479;28;20045;-44
2022/03/10 11:04:51;;;;;;;15.48;10.15;;;20.00;44.90;;;;;;5026714;28;20088;-44
2022/03/10 11:07:17;;;;;;;16.70;9.93;;;19.70;45.30;;;;;;5027854;28;20450;-44
2022/03/10 11:09:45;;;;;;;14.77;9.35;;;19.30;45.80;;;;;;5009261;28;20565;-43
2022/03/10 11:12:13;;;;;;;13.00;9.13;;;18.40;45.20;;;;;;5009480;28;20045;-45
2022/03/10 11:14:40;;;;;;;14.10;10.52;;;17.40;45.50;;;;;;5026842;28;20049;-45
2022/03/10 11:17:07;;;;;;;16.08;9.90;;;16.20;46.20;;;;;;5027559;28;20048;-43
2022/03/10 11:19:37;;;;;;;16.52;11.07;;;15.50;47.80;;;;;;5027315;28;20053;-44
2022/03/10 11:22:28;;;;;;;15.15;10.30;;;14.90;48.90;;;;;;5027066;28;20674;-41
2022/03/10 11:25:08;;;;;;;16.38;11.23;;;14.20;49.90;;;;;;5027059;28;20077;-42
2022/03/10 11:27:38;;;;;;;15.57;10.35;;;14.00;51.30;;;;;;5027095;28;20041;-43
2022/03/10 11:30:06;;;;;;;18.40;11.57;;;13.80;51.60;;;;;;5027395;28;20037;-42
2022/03/10 11:32:32;;;;;;;19.83;11.68;;;13.60;51.70;;;;;;5027232;28;20080;-42
2022/03/10 11:35:00;;;;;;;16.48;10.50;;;13.40;52.00;;;;;;5026822;28;20464;-43
2022/03/10 11:37:36;;;;;;;17.05;10.50;;;13.40;52.00;;;;;;5026952;28;20056;-43
2022/03/10 11:40:04;;;;;;;18.90;11.85;;;13.20;52.70;;;;;;5027004;28;20049;-42
2022/03/10 11:42:32;;;;;;;16.05;11.60;;;13.10;53.20;;;;;;5026999;28;20050;-43
2022/03/10 11:45:28;;;;;;;17.55;11.20;;;13.10;53.70;;;;;;5027189;28;20051;-41
2022/03/10 11:47:54;;;;;;;14.77;10.55;;;13.00;53.20;;;;;;5025191;28;20118;-42
2022/03/10 11:50:22;;;;;;;15.70;10.75;;;13.00;53.00;;;;;;5011832;28;20060;-42
2022/03/10 11:52:58;;;;;;;15.95;10.60;;;12.90;53.80;;;;;;5046600;28;20045;-43
2022/03/10 11:55:41;;;;;;;16.02;11.13;;;12.90;53.70;;;;;;5047125;28;20036;-42
2022/03/10 11:58:10;;;;;;;17.75;11.48;;;12.80;53.50;;;;;;5046974;28;20052;-42
2022/03/10 12:00:44;;;;;;;16.73;11.02;;;12.70;54.10;;;;;;5047419;28;20491;-41
2022/03/10 12:03:25;;;;;;;14.75;10.82;;;12.80;54.80;;;;;;5046699;28;20048;-41
2022/03/10 12:05:56;;;;;;;13.38;9.45;;;12.80;54.00;;;;;;5046573;28;20072;-43
2022/03/10 12:08:29;;;;;;;17.42;11.80;;;12.80;53.50;;;;;;5045429;28;20044;-43
2022/03/10 12:10:55;;;;;;;15.85;10.88;;;12.70;53.60;;;;;;5046813;28;20433;-43
2022/03/10 12:13:21;;;;;;;19.38;12.65;;;12.80;53.60;;;;;;5046856;28;20052;-43
2022/03/10 12:15:48;;;;;;;15.63;10.95;;;12.80;53.90;;;;;;5045920;28;20056;-43
2022/03/10 12:18:19;;;;;;;17.17;11.80;;;13.10;53.50;;;;;;5046434;28;20037;-43
2022/03/10 12:20:46;;;;;;;19.40;11.80;;;12.80;53.00;;;;;;5046331;28;20052;-42
2022/03/10 12:23:15;;;;;;;19.08;10.68;;;12.90;53.60;;;;;;5046930;28;20049;-41
2022/03/10 12:25:41;;;;;;;15.38;10.90;;;12.90;54.00;;;;;;5046857;28;20704;-42
2022/03/10 12:28:08;;;;;;;18.35;11.77;;;13.30;54.60;;;;;;5045831;28;20037;-42
2022/03/10 12:30:44;;;;;;;18.98;13.00;;;12.90;54.60;;;;;;5046560;28;20111;-43
2022/03/10 12:33:10;;;;;;;18.98;11.73;;;13.00;54.00;;;;;;5046893;28;20040;-42
2022/03/10 12:35:38;;;;;;;17.02;11.77;;;13.10;54.00;;;;;;5046442;28;20076;-42
2022/03/10 12:38:05;;;;;;;16.13;11.65;;;13.10;54.60;;;;;;5045979;28;20044;-43
2022/03/10 12:40:34;;;;;;;20.98;12.23;;;13.10;54.80;;;;;;5046369;28;20061;-43
2022/03/10 12:43:02;;;;;;;20.55;11.90;;;13.20;54.50;;;;;;5046491;28;20099;-42